ADDS METAR Data INFO
IDs: Format: Raw Decoded Include TAF

Data at: 1837 UTC 17 Oct 2017

PABL 171756Z AUTO 00000KT 10SM FEW004 OVC041 M01/M01 A2951 RMK AO2 SLP995 60001 T10061006 10000 21006 58003 FZRANO
PABL 171718Z AUTO 00000KT 10SM SCT010 OVC039 M01/M01 A2951 RMK AO2 FZRANO
PABL 171705Z AUTO 00000KT 10SM BKN010 OVC039 M01/M01 A2951 RMK AO2 CIG 008V012 FZRANO
PABL 171656Z AUTO 00000KT 10SM OVC008 00/M01 A2951 RMK AO2 CIG 008V012 SLP997 T00001006 FZRANO
PABL 171610Z AUTO 28004KT 3SM BR OVC006 00/00 A2952 RMK AO2 CIG 003V008 FZRANO
PABL 171556Z AUTO 28003KT 3SM BR OVC006 00/00 A2952 RMK AO2 UPB28E56SNE28 CIG 003V007 SLP998 P0001 T00000000 FZRANO
PABL 171554Z AUTO 28003KT 4SM UP BR BKN006 OVC015 00/00 A2952 RMK AO2 UPB28SNE28 CIG 003V007 P0001 FZRANO
PABL 171546Z AUTO 30004KT 2SM UP BR BKN004 BKN015 OVC021 00/00 A2952 RMK AO2 UPB28SNE28 CIG 003V007 P0001 FZRANO
PABL 171539Z AUTO 31004KT 1 1/2SM UP BR SCT004 BKN015 OVC021 00/00 A2952 RMK AO2 UPB28SNE28 P0001 FZRANO
PABL 171529Z AUTO 31003KT 2 1/2SM UP BR FEW004 BKN015 OVC019 00/00 A2952 RMK AO2 UPB28SNE28 P0001 FZRANO
PABL 171524Z AUTO 29003KT 6SM -SN BR FEW004 BKN013 OVC019 00/00 A2952 RMK AO2 P0001 FZRANO
PABL 171515Z AUTO 30004KT 2SM -SN BR SCT004 OVC015 00/00 A2953 RMK AO2 VIS 1 1/2V3 P0001 FZRANO
PABL 171456Z AUTO 30004KT 2SM -SN BR OVC004 00/00 A2953 RMK AO2 UPB20E33SNB33 SLP002 P0000 60000 T00000000 58005 FZRANO
PABL 171449Z AUTO 31004KT 2SM -SN BR OVC004 00/00 A2953 RMK AO2 UPB20E33SNB33 P0000 FZRANO
PABL 171425Z AUTO 32004KT 1 3/4SM UP BR OVC009 00/M01 A2953 RMK AO2 UPB20 CIG 005V011 P0000 FZRANO
PABL 171356Z AUTO 33005KT 10SM OVC007 00/00 A2954 RMK AO2 CIG 005V011 SLP004 T00000000 FZRANO
PABL 171340Z AUTO 32003KT 10SM OVC007 00/M01 A2954 RMK AO2 CIG 004V009 FZRANO
PABL 171256Z AUTO 34004KT 3SM BR OVC005 00/00 A2954 RMK AO2 CIG 003V008 SLP007 T00000000 FZRANO
PABL 171253Z AUTO 34004KT 4SM BR OVC005 00/M01 A2954 RMK AO2 CIG 003V008 FZRANO
PABL 171243Z AUTO 33005KT 2 1/2SM BR BKN005 OVC044 00/M01 A2955 RMK AO2 VIS 1 1/4V5 CIG 003V008 FZRANO
PABL 171204Z AUTO 33005KT 5SM BR OVC007 00/00 A2955 RMK AO2 CIG 002V008 FZRANO
PABL 171156Z AUTO 32005KT 2 1/2SM BR OVC007 00/00 A2956 RMK AO2 SLP011 60000 70002 T00000000 10006 20000 58005 FZRANO
PABL 171142Z AUTO 32006KT 1 3/4SM BR OVC007 01/00 A2956 RMK AO2 FZRANO
PABL 171130Z AUTO 32004KT 1 1/4SM BR OVC005 01/00 A2956 RMK AO2 CIG 004V008 FZRANO
PABL 171109Z AUTO 32004KT 2SM BR OVC005 01/00 A2956 RMK AO2 FZRANO
PABL 171056Z AUTO 32005KT 8SM OVC007 01/00 A2956 RMK AO2 SLP013 T00060000 FZRANO
PABL 170956Z AUTO 36003KT 4SM BR OVC007 01/00 A2957 RMK AO2 CIG 003V010 SLP015 T00060000 FZRANO
PABL 170939Z AUTO 33003KT 2SM BR OVC007 01/00 A2957 RMK AO2 CIG 003V010 FZRANO
PABL 170936Z AUTO 34004KT 1SM BR OVC005 00/00 A2957 RMK AO2 CIG 004V009 FZRANO
PABL 170931Z AUTO 34004KT 1/2SM FG OVC005 00/00 A2957 RMK AO2 CIG 004V009 FZRANO
PABL 170920Z AUTO 32003KT 3/4SM BR BKN005 OVC009 00/00 A2957 RMK AO2 CIG 003V008 FZRANO
PABL 170916Z AUTO 32003KT 1 1/4SM BR OVC007 00/00 A2957 RMK AO2 CIG 003V009 FZRANO
PABL 170907Z AUTO 32003KT 1/2SM FG OVC005 00/00 A2957 RMK AO2 CIG 003V008 FZRANO
PABL 170856Z AUTO 31004KT 1/4SM FG OVC003 01/00 A2957 RMK AO2 RAE20UPB0759E01 SLP016 P0000 60000 T00060000 400280006 57001 FZRANO
PABL 170851Z AUTO 31003KT 1/2SM FG OVC003 01/00 A2957 RMK AO2 RAE20UPB0759E01 P0000 400280006 FZRANO
PABL 170830Z AUTO 00000KT 1SM BR OVC003 01/00 A2957 RMK AO2 RAE20UPB0759E01 P0000 FZRANO
PABL 170817Z AUTO 00000KT 1 1/4SM -RA BR OVC003 01/00 A2957 RMK AO2 UPB0759E01 P0000 FZRANO
PABL 170804Z AUTO 00000KT 1SM -RA BR OVC003 01/01 A2957 RMK AO2 UPB0759E01 P0000 FZRANO
PABL 170756Z AUTO 00000KT 1SM -RA BR OVC005 01/01 A2957 RMK AO2 RAB50 CIG 003V007 SLP017 P0000 T00060006 FZRANO
PABL 170741Z AUTO 00000KT 1 1/2SM BR BKN005 OVC010 01/00 A2957 RMK AO2 CIG 003V009 FZRANO
PABL 170731Z AUTO 00000KT 2SM BR OVC007 01/00 A2957 RMK AO2 CIG 006V010 FZRANO
PABL 161956Z AUTO 00000KT 10SM OVC012 01/01 A2962 RMK AO2 SLP034 T00110006 FZRANO
PABL 161856Z AUTO 12003KT 10SM OVC012 01/M01 A2962 RMK AO2 SLP032 T00061006 FZRANO
PABL 161809Z AUTO 00000KT 10SM OVC014 01/M01 A2962 RMK AO2 FZRANO
PABL 161756Z AUTO 00000KT 10SM OVC016 01/M01 A2962 RMK AO2 SLP033 60000 T00061006 10011 20006 53001 FZRANO
PABL 161656Z AUTO 00000KT 10SM SCT018 OVC029 01/M01 A2962 RMK AO2 SLP031 T00061006 FZRANO
PABL 161556Z AUTO 00000KT 10SM OVC015 01/M01 A2962 RMK AO2 SLP032 T00061006 FZRANO
PABL 161456Z AUTO 00000KT 10SM FEW015 BKN023 OVC028 01/00 A2962 RMK AO2 RAB18E31 SLP032 P0000 60000 T00060000 53000 FZRANO
PABL 161441Z AUTO 00000KT 10SM SCT012 OVC023 01/00 A2962 RMK AO2 RAB18E31 P0000 FZRANO
PABL 161356Z AUTO 13003KT 10SM OVC012 01/00 A2962 RMK AO2 SLP031 T00110000 FZRANO
PABL 161256Z AUTO 13003KT 10SM OVC014 01/M01 A2962 RMK AO2 SLP032 T00061006 FZRANO
PABL 161226Z AUTO 00000KT 10SM OVC014 01/M01 A2962 RMK AO2 FZRANO
PABL 161213Z AUTO 00000KT 10SM OVC016 01/M01 A2962 RMK AO2 FZRANO
PABL 161203Z AUTO 00000KT 10SM OVC014 01/M01 A2962 RMK AO2 FZRANO
PABL 161156Z AUTO 00000KT 10SM OVC016 01/00 A2962 RMK AO2 SLP032 60000 T00060000 10011 20006 51004 FZRANO
PABL 161123Z AUTO 00000KT 10SM OVC016 01/M01 A2961 RMK AO2 FZRANO
PABL 161056Z AUTO 00000KT 10SM OVC013 01/M01 A2962 RMK AO2 UPE0958RAB0958E12 SLP031 P0000 T00111006 FZRANO
PABL 161040Z AUTO 00000KT 10SM OVC011 01/00 A2962 RMK AO2 UPE0958RAB0958E12 P0000 FZRANO
PABL 160956Z AUTO 00000KT 10SM UP BKN009 OVC013 01/M01 A2962 RMK AO2 UPB56 SLP032 P0000 T00111006 FZRANO
PABL 160910Z AUTO 13004KT 10SM OVC013 01/00 A2961 RMK AO2 FZRANO
PABL 160856Z AUTO 14003KT 10SM OVC015 01/00 A2961 RMK AO2 SLP028 T00110000 400221017 51004 FZRANO
PABL 160722Z AUTO 00000KT 10SM OVC015 01/00 A2960 RMK AO2 FZRANO
PABL 160656Z AUTO 00000KT 10SM OVC013 01/00 A2960 RMK AO2 SLP026 T00110000 FZRANO